createdAt,value
2018-05-07T00:01:38.021Z,16.38
2018-05-07T00:06:33.896Z,16.10
2018-05-07T00:11:29.775Z,16.10
2018-05-07T00:16:25.425Z,15.97
2018-05-07T00:21:25.109Z,15.95
2018-05-07T00:26:20.216Z,15.88
2018-05-07T00:31:16.964Z,15.77
2018-05-07T00:36:17.583Z,15.80
2018-05-07T00:41:12.353Z,15.59
2018-05-07T00:46:08.169Z,15.55
2018-05-07T00:51:08.843Z,15.51
2018-05-07T00:56:07.639Z,15.46
2018-05-07T01:01:02.726Z,15.37
2018-05-07T01:05:58.853Z,15.42
2018-05-07T01:10:55.854Z,15.22
2018-05-07T01:15:51.216Z,15.04
2018-05-07T01:20:50.988Z,14.99
2018-05-07T01:25:45.896Z,14.96
2018-05-07T01:30:45.408Z,14.88
2018-05-07T01:35:40.788Z,15.04
2018-05-07T01:40:41.828Z,15.18
2018-05-07T01:45:36.549Z,15.09
2018-05-07T01:50:33.396Z,14.92
2018-05-07T01:55:32.909Z,15.04
2018-05-07T02:00:29.275Z,14.72
2018-05-07T02:05:24.796Z,14.70
2018-05-07T02:10:20.277Z,14.86
2018-05-07T02:15:17.143Z,14.54
2018-05-07T02:20:16.347Z,14.48
2018-05-07T02:25:15.118Z,14.50
2018-05-07T02:30:14.035Z,14.41
2018-05-07T02:35:08.943Z,14.44
2018-05-07T02:40:05.310Z,14.33
2018-05-07T02:45:01.214Z,14.30
2018-05-07T02:49:57.015Z,14.20
2018-05-07T02:54:53.101Z,14.15
2018-05-07T02:59:50.117Z,14.18
2018-05-07T03:04:49.499Z,14.11
2018-05-07T03:09:47.983Z,13.95
2018-05-07T03:14:46.959Z,14.11
2018-05-07T03:19:41.722Z,13.89
2018-05-07T03:24:37.470Z,13.71
2018-05-07T03:29:34.280Z,13.83
2018-05-07T03:34:30.317Z,13.81
2018-05-07T03:39:27.205Z,13.85
2018-05-07T03:44:22.639Z,13.63
2018-05-07T03:49:18.772Z,13.46
2018-05-07T03:54:14.506Z,13.54
2018-05-07T03:59:14.326Z,13.68
2018-05-07T04:04:09.241Z,13.52
2018-05-07T04:09:05.363Z,13.30
2018-05-07T04:14:05.180Z,13.28
2018-05-07T04:19:04.179Z,13.44
2018-05-07T04:24:00.248Z,13.38
2018-05-07T04:28:55.924Z,13.42
2018-05-07T04:33:52.830Z,13.68
2018-05-07T04:38:48.713Z,14.33
2018-05-07T04:43:44.861Z,14.30
2018-05-07T04:48:40.916Z,14.41
2018-05-07T04:53:41.085Z,14.50
2018-05-07T04:58:36.084Z,14.62
2018-05-07T05:03:32.028Z,14.60
2018-05-07T05:08:28.373Z,14.65
2018-05-07T05:13:25.007Z,14.94
2018-05-07T05:18:21.616Z,14.99
2018-05-07T05:23:17.692Z,15.09
2018-05-07T05:28:13.569Z,15.22
2018-05-07T05:33:09.700Z,15.29
2018-05-07T05:38:06.690Z,15.35
2018-05-07T05:43:02.515Z,15.40
2018-05-07T05:48:03.629Z,15.67
2018-05-07T05:52:59.961Z,15.91
2018-05-07T05:57:59.527Z,15.97
2018-05-07T06:02:58.224Z,16.23
2018-05-07T06:07:53.634Z,16.29
2018-05-07T06:12:49.974Z,16.31
2018-05-07T06:17:49.740Z,16.50
2018-05-07T06:22:44.835Z,16.60
2018-05-07T06:27:44.859Z,16.72
2018-05-07T06:32:40.892Z,16.83
2018-05-07T06:37:36.556Z,16.93
2018-05-07T06:42:32.654Z,17.05
2018-05-07T06:47:28.695Z,17.12
2018-05-07T06:52:24.892Z,17.14
2018-05-07T06:57:20.450Z,17.23
2018-05-07T07:02:21.584Z,17.39
2018-05-07T07:07:16.521Z,17.54
2018-05-07T07:12:13.293Z,17.52
2018-05-07T07:17:08.856Z,17.72
2018-05-07T07:22:04.989Z,17.97
2018-05-07T07:27:05.981Z,18.05
2018-05-07T07:32:01.075Z,18.19
2018-05-07T07:36:57.145Z,18.37
2018-05-07T07:41:53.692Z,18.84
2018-05-07T07:46:50.518Z,19.22
2018-05-07T07:51:47.751Z,20.70
2018-05-07T07:56:47.269Z,22.78
2018-05-07T08:01:45.715Z,23.00
2018-05-07T08:06:43.357Z,24.55
2018-05-07T08:11:40.675Z,25.65
2018-05-07T08:16:38.172Z,26.31
2018-05-07T08:21:38.783Z,24.50
2018-05-07T08:26:35.383Z,25.65
2018-05-07T08:31:32.212Z,25.32
2018-05-07T08:36:29.409Z,25.87
2018-05-07T08:41:25.482Z,25.87
2018-05-07T08:46:24.620Z,25.10
2018-05-07T08:51:18.598Z,24.23
2018-05-07T08:56:16.657Z,23.81
2018-05-07T09:01:11.701Z,23.81
2018-05-07T09:06:07.238Z,23.63
2018-05-07T09:11:02.210Z,23.86
2018-05-07T09:15:58.823Z,23.92
2018-05-07T09:20:58.394Z,25.32
2018-05-07T09:25:56.715Z,25.65
2018-05-07T09:30:54.102Z,27.32
2018-05-07T09:35:52.130Z,26.93
2018-05-07T09:40:53.469Z,26.80
2018-05-07T09:45:50.124Z,28.08
2018-05-07T09:50:46.607Z,27.08
2018-05-07T09:55:46.570Z,27.14
2018-05-07T10:00:41.784Z,27.39
2018-05-07T10:05:38.248Z,28.72
2018-05-07T10:10:34.943Z,26.92
2018-05-07T10:15:30.919Z,26.95
2018-05-07T10:20:30.996Z,27.22
2018-05-07T10:25:30.276Z,28.05
2018-05-07T10:30:26.291Z,28.48
2018-05-07T10:35:22.822Z,28.85
2018-05-07T10:40:20.523Z,28.45
2018-05-07T10:45:16.296Z,27.67
2018-05-07T10:50:13.570Z,28.44
2018-05-07T10:55:13.592Z,28.85
2018-05-07T11:00:14.251Z,29.56
2018-05-07T11:05:09.880Z,28.20
2018-05-07T11:10:05.731Z,26.92
2018-05-07T11:15:06.223Z,26.15
2018-05-07T11:20:04.983Z,27.26
2018-05-07T11:25:00.907Z,28.35
2018-05-07T11:29:57.829Z,26.44
2018-05-07T11:34:57.817Z,28.35
2018-05-07T11:39:53.906Z,28.20
2018-05-07T11:44:50.560Z,29.66
2018-05-07T11:49:48.184Z,27.92
2018-05-07T11:54:44.938Z,27.96
2018-05-07T11:59:40.725Z,27.49
2018-05-07T12:04:36.257Z,28.10
2018-05-07T12:09:32.293Z,28.33
2018-05-07T12:14:32.489Z,28.96
2018-05-07T12:19:27.416Z,28.59
2018-05-07T12:24:27.615Z,28.44
2018-05-07T12:29:22.591Z,29.39
2018-05-07T12:34:23.049Z,29.94
2018-05-07T12:39:17.644Z,27.70
2018-05-07T12:44:13.542Z,27.05
2018-05-07T12:49:11.127Z,27.70
2018-05-07T12:54:08.960Z,28.93
2018-05-07T12:59:05.751Z,29.63
2018-05-07T13:04:06.310Z,29.84
2018-05-07T13:09:01.974Z,29.38
2018-05-07T13:13:57.918Z,28.78
2018-05-07T13:18:57.695Z,29.13
2018-05-07T13:23:56.444Z,29.02
2018-05-07T13:28:51.740Z,29.57
2018-05-07T13:33:47.571Z,28.76
2018-05-07T13:38:44.237Z,27.98
2018-05-07T13:43:39.144Z,28.10
2018-05-07T13:48:35.273Z,28.02
2018-05-07T13:53:30.531Z,26.68
2018-05-07T13:58:25.945Z,26.60
2018-05-07T14:03:21.178Z,26.13
2018-05-07T14:08:20.731Z,25.65
2018-05-07T14:13:15.727Z,25.65
2018-05-07T14:18:12.326Z,26.03
2018-05-07T14:23:09.126Z,26.06
2018-05-07T14:28:08.909Z,26.09
2018-05-07T14:33:07.954Z,25.95
2018-05-07T14:38:06.885Z,25.78
2018-05-07T14:43:01.960Z,25.75
2018-05-07T14:47:57.794Z,25.62
2018-05-07T14:52:53.744Z,25.68
2018-05-07T14:57:49.606Z,25.73
2018-05-07T15:02:49.424Z,25.68
2018-05-07T15:07:45.424Z,25.60
2018-05-07T15:12:40.976Z,25.70
2018-05-07T15:17:37.158Z,25.55
2018-05-07T15:22:36.799Z,25.48
2018-05-07T15:27:31.934Z,25.47
2018-05-07T15:32:27.946Z,25.46
2018-05-07T15:37:27.901Z,25.54
2018-05-07T15:42:26.948Z,25.66
2018-05-07T15:47:26.491Z,25.58
2018-05-07T15:52:21.726Z,25.62
2018-05-07T15:57:22.411Z,25.40
2018-05-07T16:02:17.112Z,25.51
2018-05-07T16:07:13.329Z,25.40
2018-05-07T16:12:09.601Z,25.46
2018-05-07T16:17:09.384Z,25.51
2018-05-07T16:22:05.148Z,25.50
2018-05-07T16:27:01.260Z,25.48
2018-05-07T16:32:01.264Z,25.41
2018-05-07T16:37:00.397Z,25.40
2018-05-07T16:41:59.463Z,25.35
2018-05-07T16:46:58.352Z,25.36
2018-05-07T16:51:54.912Z,25.35
2018-05-07T16:56:50.670Z,25.31
2018-05-07T17:01:46.576Z,25.26
2018-05-07T17:06:46.458Z,25.28
2018-05-07T17:11:46.404Z,25.08
2018-05-07T17:21:42.020Z,25.08
2018-05-07T17:26:41.555Z,24.93
2018-05-07T17:31:40.946Z,24.92
2018-05-07T17:36:39.875Z,24.78
2018-05-07T17:41:36.266Z,24.69
2018-05-07T17:46:33.358Z,24.65
2018-05-07T17:51:28.768Z,24.60
2018-05-07T17:56:28.721Z,24.48
2018-05-07T18:01:23.802Z,24.28
2018-05-07T18:06:23.421Z,24.13
2018-05-07T18:11:19.792Z,23.98
2018-05-07T18:16:15.346Z,23.91
2018-05-07T18:21:15.241Z,23.74
2018-05-07T18:26:10.267Z,23.54
2018-05-07T18:31:10.262Z,23.34
2018-05-07T18:36:06.316Z,23.23
2018-05-07T18:41:05.822Z,23.03
2018-05-07T18:46:00.669Z,22.91
2018-05-07T18:55:57.012Z,22.59
2018-05-07T19:00:56.575Z,22.39
2018-05-07T19:05:52.521Z,22.39
2018-05-07T19:10:49.127Z,22.20
2018-05-07T19:15:44.710Z,22.10
2018-05-07T19:20:40.519Z,21.85
2018-05-07T19:25:40.248Z,21.70
2018-05-07T19:30:36.052Z,21.58
2018-05-07T19:35:32.667Z,21.37
2018-05-07T19:40:28.177Z,21.07
2018-05-07T19:45:27.874Z,20.97
2018-05-07T19:50:22.773Z,20.99
2018-05-07T19:55:22.393Z,20.75
2018-05-07T20:00:17.239Z,20.60
2018-05-07T20:05:13.264Z,20.62
2018-05-07T20:10:13.038Z,20.47
2018-05-07T20:15:13.612Z,20.29
2018-05-07T20:20:13.252Z,20.14
2018-05-07T20:25:11.941Z,20.09
2018-05-07T20:30:06.851Z,19.92
2018-05-07T20:35:02.616Z,19.77
2018-05-07T20:40:02.427Z,19.73
2018-05-07T20:44:57.327Z,19.62
2018-05-07T20:49:53.417Z,19.49
2018-05-07T20:54:53.144Z,19.59
2018-05-07T20:59:48.389Z,19.55
2018-05-07T21:04:49.316Z,19.54
2018-05-07T21:09:43.965Z,19.29
2018-05-07T21:14:40.099Z,19.00
2018-05-07T21:19:39.639Z,19.14
2018-05-07T21:24:34.905Z,18.98
2018-05-07T21:29:35.548Z,18.95
2018-05-07T21:34:31.294Z,18.83
2018-05-07T21:39:26.669Z,18.78
2018-05-07T21:44:22.195Z,18.75
2018-05-07T21:49:19.157Z,18.66
2018-05-07T21:54:14.673Z,18.59
2018-05-07T21:59:10.709Z,18.53
2018-05-07T22:04:07.573Z,18.49
2018-05-07T22:09:04.650Z,18.23
2018-05-07T22:14:01.319Z,18.29
2018-05-07T22:19:00.859Z,18.08
2018-05-07T22:23:59.601Z,18.11
2018-05-07T22:28:55.457Z,17.82
2018-05-07T22:33:51.285Z,17.80
2018-05-07T22:38:47.051Z,17.59
2018-05-07T22:43:43.886Z,17.65
2018-05-07T22:48:39.514Z,17.56
2018-05-07T22:53:36.359Z,17.54
2018-05-07T22:58:31.953Z,17.56
2018-05-07T23:03:27.713Z,17.60
2018-05-07T23:08:25.066Z,17.39
2018-05-07T23:13:20.581Z,17.23
2018-05-07T23:18:16.572Z,17.04
2018-05-07T23:23:16.308Z,16.90
2018-05-07T23:28:15.505Z,16.96
2018-05-07T23:33:15.482Z,16.94
2018-05-07T23:38:14.216Z,17.04
2018-05-07T23:43:09.010Z,17.05
2018-05-07T23:48:04.787Z,16.96
2018-05-07T23:53:01.239Z,16.71
2018-05-07T23:58:00.824Z,16.75
